createdAt,value
2019-01-11T00:03:18.722Z,65.87
2019-01-11T00:08:20.719Z,66.29
2019-01-11T00:13:22.727Z,66.02
2019-01-11T00:18:25.634Z,64.99
2019-01-11T00:23:27.626Z,66.28
2019-01-11T00:28:29.734Z,65.34
2019-01-11T00:33:31.827Z,65.17
2019-01-11T00:38:33.877Z,65.33
2019-01-11T00:43:35.941Z,64.44
2019-01-11T00:48:37.937Z,63.27
2019-01-11T00:53:39.957Z,63.18
2019-01-11T00:58:41.982Z,63.19
2019-01-11T01:03:44.252Z,63.88
2019-01-11T01:08:46.292Z,63.61
2019-01-11T01:13:48.312Z,64.38
2019-01-11T01:18:50.602Z,64.39
2019-01-11T01:23:52.795Z,66.23
2019-01-11T01:28:54.782Z,66.84
2019-01-11T01:33:56.819Z,68.30
2019-01-11T01:38:58.819Z,69.08
2019-01-11T01:44:01.142Z,69.10
2019-01-11T01:49:03.504Z,69.21
2019-01-11T01:54:46.358Z,69.18
2019-01-11T01:59:48.826Z,69.71
2019-01-11T02:04:50.897Z,69.85
2019-01-11T02:09:52.875Z,69.69
2019-01-11T02:14:55.203Z,69.99
2019-01-11T02:19:57.216Z,70.04
2019-01-11T02:24:59.369Z,70.65
2019-01-11T02:30:01.360Z,70.80
2019-01-11T02:35:44.258Z,70.66
2019-01-11T02:40:46.352Z,71.05
2019-01-11T02:45:48.382Z,71.80
2019-01-11T02:50:50.380Z,72.59
2019-01-11T02:55:52.379Z,73.54
2019-01-11T03:00:54.444Z,75.20
2019-01-11T03:11:06.470Z,75.93
2019-01-11T03:16:08.858Z,75.97
2019-01-11T03:21:10.869Z,76.26
2019-01-11T03:26:12.921Z,76.58
2019-01-11T03:31:34.517Z,76.78
2019-01-11T03:36:36.584Z,76.32
2019-01-11T03:41:58.159Z,76.31
2019-01-11T03:47:00.187Z,76.62
2019-01-11T03:52:02.300Z,76.72
2019-01-11T03:57:04.297Z,77.07
2019-01-11T04:02:06.429Z,77.61
2019-01-11T04:07:08.449Z,77.32
2019-01-11T04:12:10.499Z,76.92
2019-01-11T04:17:12.526Z,76.92
2019-01-11T04:22:34.147Z,76.64
2019-01-11T04:27:36.199Z,76.99
2019-01-11T04:32:38.478Z,77.46
2019-01-11T04:37:40.680Z,78.48
2019-01-11T04:42:42.667Z,79.64
2019-01-11T04:47:44.674Z,80.65
2019-01-11T04:52:46.821Z,82.28
2019-01-11T04:57:48.813Z,83.95
2019-01-11T05:02:50.823Z,84.80
2019-01-11T05:07:53.169Z,85.91
2019-01-11T05:23:15.293Z,85.65
2019-01-11T05:28:17.339Z,85.55
2019-01-11T05:33:19.377Z,86.34
2019-01-11T05:38:21.404Z,86.73
2019-01-11T05:43:23.770Z,86.75
2019-01-11T05:48:25.818Z,87.23
2019-01-11T05:53:27.848Z,87.93
2019-01-11T05:58:31.314Z,88.22
2019-01-11T06:03:33.333Z,88.94
2019-01-11T06:08:35.921Z,89.06
2019-01-11T06:13:38.022Z,89.30
2019-01-11T06:18:40.143Z,89.86
2019-01-11T06:23:42.198Z,89.99
2019-01-11T06:28:44.246Z,90.39
2019-01-11T06:33:46.538Z,90.49
2019-01-11T06:38:48.583Z,91.15
2019-01-11T06:43:50.904Z,90.93
2019-01-11T06:48:53.054Z,90.94
2019-01-11T06:53:55.142Z,91.33
2019-01-11T06:58:57.225Z,90.79
2019-01-11T07:03:59.501Z,91.05
2019-01-11T07:09:01.526Z,90.83
2019-01-11T07:14:03.909Z,91.22
2019-01-11T07:19:05.986Z,91.12
2019-01-11T07:24:08.095Z,91.45
2019-01-11T07:29:10.156Z,91.74
2019-01-11T07:34:12.293Z,91.13
2019-01-11T07:39:33.957Z,91.65
2019-01-11T07:44:36.452Z,91.32
2019-01-11T07:49:38.532Z,91.66
2019-01-11T07:54:40.540Z,91.29
2019-01-11T07:59:42.710Z,91.67
2019-01-11T08:04:45.374Z,92.08
2019-01-11T08:14:57.825Z,91.53
2019-01-11T08:20:00.038Z,91.68
2019-01-11T08:30:14.260Z,92.19
2019-01-11T08:35:16.615Z,92.27
2019-01-11T08:40:18.687Z,92.23
2019-01-11T08:45:20.925Z,92.63
2019-01-11T08:50:23.029Z,92.96
2019-01-11T08:55:25.197Z,92.96
2019-01-11T09:00:27.282Z,92.75
2019-01-11T09:05:29.835Z,93.10
2019-01-11T09:10:32.245Z,93.46
2019-01-11T09:15:34.294Z,92.96
2019-01-11T09:25:46.875Z,93.28
2019-01-11T09:30:50.201Z,93.05
2019-01-11T09:35:52.340Z,93.28
2019-01-11T09:40:54.547Z,93.02
2019-01-11T09:45:57.375Z,92.70
2019-01-11T09:50:59.413Z,92.63
2019-01-11T09:56:01.517Z,92.68
2019-01-11T10:01:03.941Z,91.97
2019-01-11T10:06:06.463Z,92.00
2019-01-11T10:11:08.684Z,92.18
2019-01-11T10:16:10.733Z,92.00
2019-01-11T10:21:12.919Z,91.84
2019-01-11T10:26:14.950Z,91.86
2019-01-11T10:31:17.139Z,92.02
2019-01-11T10:36:19.183Z,91.95
2019-01-11T10:41:21.276Z,91.47
2019-01-11T10:46:48.896Z,92.09
2019-01-11T10:51:47.201Z,91.87
2019-01-11T10:56:49.262Z,92.42
2019-01-11T11:01:51.302Z,92.07
2019-01-11T11:06:53.356Z,92.29
2019-01-11T11:11:55.469Z,92.48
2019-01-11T11:16:57.523Z,92.89
2019-01-11T11:21:59.635Z,92.73
2019-01-11T11:27:01.885Z,92.33
2019-01-11T11:32:04.073Z,92.50
2019-01-11T11:42:16.958Z,92.98
2019-01-11T11:47:20.513Z,93.18
2019-01-11T11:52:22.525Z,93.36
2019-01-11T11:57:24.538Z,93.33
2019-01-11T12:02:26.648Z,93.22
2019-01-11T12:07:28.744Z,93.08
2019-01-11T12:12:31.495Z,92.85
2019-01-11T12:17:36.070Z,93.15
2019-01-11T12:22:39.894Z,93.06
2019-01-11T12:27:42.651Z,93.38
2019-01-11T12:32:44.708Z,93.27
2019-01-11T12:37:46.716Z,93.17
2019-01-11T12:42:48.754Z,93.72
2019-01-11T12:47:50.774Z,93.53
2019-01-11T12:52:52.775Z,93.26
2019-01-11T12:57:54.817Z,93.21
2019-01-11T13:02:57.012Z,93.31
2019-01-11T13:07:59.010Z,93.52
2019-01-11T13:13:01.102Z,93.41
2019-01-11T13:18:03.247Z,94.03
2019-01-11T13:23:06.460Z,93.90
2019-01-11T13:28:09.534Z,93.77
2019-01-11T13:33:11.688Z,93.69
2019-01-11T13:38:13.718Z,93.79
2019-01-11T13:43:15.767Z,93.69
2019-01-11T13:48:17.831Z,93.83
2019-01-11T13:53:20.053Z,93.54
2019-01-11T13:58:22.158Z,93.50
2019-01-11T14:03:24.224Z,93.65
2019-01-11T14:08:26.351Z,93.56
2019-01-11T14:13:28.410Z,93.44
2019-01-11T14:18:30.462Z,93.42
2019-01-11T14:23:32.513Z,93.62
2019-01-11T14:28:34.581Z,93.71
2019-01-11T14:33:36.903Z,93.82
2019-01-11T14:38:38.897Z,94.05
2019-01-11T14:43:40.950Z,93.92
2019-01-11T14:48:43.030Z,94.19
2019-01-11T14:53:45.086Z,94.20
2019-01-11T14:58:47.131Z,94.16
2019-01-11T15:03:49.168Z,94.04
2019-01-11T15:08:51.250Z,93.98
2019-01-11T15:13:53.231Z,94.20
2019-01-11T15:18:55.311Z,94.32
2019-01-11T15:23:57.316Z,94.08
2019-01-11T15:28:59.342Z,94.31
2019-01-11T15:34:01.541Z,94.01
2019-01-11T15:39:26.872Z,94.25
2019-01-11T15:44:28.830Z,94.35
2019-01-11T15:49:30.910Z,94.64
2019-01-11T15:54:32.989Z,94.66
2019-01-11T16:00:18.797Z,94.79
2019-01-11T16:05:20.866Z,94.66
2019-01-11T16:10:23.128Z,94.69
2019-01-11T16:16:04.060Z,94.84
2019-01-11T16:21:06.100Z,95.03
2019-01-11T16:26:08.180Z,95.14
2019-01-11T16:31:10.215Z,95.27
2019-01-11T16:36:12.244Z,95.21
2019-01-11T16:41:14.259Z,95.22
2019-01-11T16:46:16.316Z,95.12
2019-01-11T16:51:18.314Z,95.13
2019-01-11T16:56:27.855Z,95.30
2019-01-11T17:01:29.858Z,95.33
2019-01-11T17:06:32.240Z,95.03
2019-01-11T17:11:34.482Z,95.26
2019-01-11T17:16:36.601Z,95.48
2019-01-11T17:21:38.718Z,95.43
2019-01-11T17:26:40.847Z,95.48
2019-01-11T17:31:43.005Z,95.50
2019-01-11T17:36:45.449Z,95.46
2019-01-11T17:41:48.160Z,95.20
2019-01-11T17:46:50.204Z,95.47
2019-01-11T17:51:52.407Z,95.62
2019-01-11T17:56:54.609Z,95.75
2019-01-11T18:01:56.888Z,95.62
2019-01-11T18:06:59.260Z,95.46
2019-01-11T18:12:01.421Z,95.48
2019-01-11T18:17:03.502Z,95.31
2019-01-11T18:22:05.569Z,95.22
2019-01-11T18:27:07.669Z,95.32
2019-01-11T18:32:09.727Z,95.37
2019-01-11T18:37:11.803Z,95.46
2019-01-11T18:42:13.829Z,95.49
2019-01-11T18:47:15.884Z,95.70
2019-01-11T18:52:17.978Z,95.47
2019-01-11T18:57:20.128Z,95.48
2019-01-11T19:02:22.238Z,95.68
2019-01-11T19:07:24.278Z,95.69
2019-01-11T19:12:26.594Z,95.79
2019-01-11T19:17:30.006Z,95.71
2019-01-11T19:22:32.650Z,95.93
2019-01-11T19:27:34.734Z,96.30
2019-01-11T19:32:36.827Z,96.11
2019-01-11T19:37:58.330Z,95.86
2019-01-11T19:43:00.388Z,95.69
2019-01-11T19:48:03.082Z,95.81
2019-01-11T19:53:05.260Z,95.69
2019-01-11T19:58:07.309Z,95.74
2019-01-11T20:03:09.385Z,95.60
2019-01-11T20:08:11.496Z,95.75
2019-01-11T20:13:13.803Z,95.59
2019-01-11T20:18:15.899Z,95.58
2019-01-11T20:23:17.945Z,95.71
2019-01-11T20:28:20.236Z,95.79
2019-01-11T20:33:22.768Z,95.97
2019-01-11T20:38:24.938Z,96.24
2019-01-11T20:43:27.022Z,96.16
2019-01-11T20:48:29.191Z,96.18
2019-01-11T20:53:31.347Z,96.09
2019-01-11T20:58:33.471Z,96.10
2019-01-11T21:03:35.502Z,96.05
2019-01-11T21:08:37.625Z,96.26
2019-01-11T21:13:39.700Z,96.22
2019-01-11T21:18:42.329Z,96.16
2019-01-11T21:23:48.613Z,96.18
2019-01-11T21:28:48.700Z,96.29
2019-01-11T21:33:50.809Z,96.26
2019-01-11T21:38:52.842Z,96.32
2019-01-11T21:43:55.565Z,96.32
2019-01-11T21:48:57.641Z,96.14
2019-01-11T21:54:00.157Z,96.14
2019-01-11T21:59:03.351Z,96.05
2019-01-11T22:04:05.448Z,95.93
2019-01-11T22:09:08.187Z,95.98
2019-01-11T22:14:10.283Z,96.07
2019-01-11T22:19:12.845Z,95.92
2019-01-11T22:24:14.967Z,95.81
2019-01-11T22:29:17.113Z,95.89
2019-01-11T22:34:19.259Z,96.05
2019-01-11T22:39:21.322Z,95.92
2019-01-11T22:44:23.511Z,95.94
2019-01-11T22:49:26.112Z,95.92
2019-01-11T22:54:28.238Z,96.12
2019-01-11T22:59:30.288Z,96.17
2019-01-11T23:04:32.331Z,96.17
2019-01-11T23:09:59.493Z,96.29
2019-01-11T23:15:01.539Z,96.37
2019-01-11T23:20:04.825Z,96.49
2019-01-11T23:25:07.235Z,96.29
2019-01-11T23:30:28.822Z,96.42
2019-01-11T23:35:30.890Z,96.30
2019-01-11T23:40:32.944Z,96.22
2019-01-11T23:45:35.466Z,96.38
2019-01-11T23:50:37.519Z,96.46
2019-01-11T23:55:39.618Z,96.58
